NCAR-RAP Real-Time Weather Data

Output produced by METARs form (10 April 2020  07:07 UTC)
found at http://weather.rap.ucar.edu/surface/
 
KALW 100653Z AUTO 09008KT 10SM CLR 12/03 A2995 RMK AO2 SLP141 T01170028
KALW 100553Z AUTO 09008KT 10SM CLR 11/03 A2994 RMK AO2 SLP140 T01110033 10206 20111 50002
KALW 100453Z AUTO 09008KT 10SM CLR 12/03 A2994 RMK AO2 SLP142 T01220033
KALW 100353Z AUTO 09006KT 10SM CLR 13/04 A2995 RMK AO2 SLP143 T01280039
KALW 100253Z AUTO 14004KT 10SM CLR 17/03 A2994 RMK AO2 SLP138 T01720028 56013
KALW 100153Z AUTO 25005KT 10SM CLR 18/04 A2994 RMK AO2 SLP141 T01780044
KALW 100053Z 22004KT 10SM CLR 20/03 A2996 RMK AO2 SLP146 T02000033
KALW 092353Z 21005KT 10SM CLR 21/02 A2998 RMK AO2 SLP152 T02060022 10211 20133 56022
KALW 092253Z 20004KT 10SM CLR 20/03 A2999 RMK AO2 SLP157 T02000028
KALW 092153Z 21004KT 10SM CLR 20/02 A3001 RMK AO2 SLP164 T02000022
KALW 092053Z 10SM CLR 19/02 A3004 RMK AO2 SLP174 T01890017 58023
KALW 091953Z VRB04KT 10SM CLR 17/01 A3007 RMK AO2 SLP185 T01720011
KALW 091853Z 17003KT 10SM CLR 15/01 A3010 RMK AO2 SLP194 T01500006
KALW 091753Z 26005KT 10SM CLR 14/01 A3012 RMK AO2 SLP200 T01390006 10139 20039 58007
KALW 091653Z 22006KT 10SM CLR 12/01 A3012 RMK AO2 SLP203 T01170006
KALW 091553Z 27003KT 10SM CLR 11/02 A3013 RMK AO2 SLP205 T01060017
KALW 091453Z 00000KT 10SM CLR 09/02 A3014 RMK AO2 SLP207 T00940017 55001
KALW 091353Z 00000KT 10SM CLR 04/M01 A3013 RMK AO2 SLP207 T00441006
KALW 091253Z 14003KT 10SM CLR 05/M01 A3014 RMK AO2 SLP208 T00501006
KALW 091153Z AUTO 10004KT 10SM CLR 05/00 A3014 RMK AO2 SLP208 T00500000 10094 20039 58003
KALW 091053Z AUTO 09006KT 10SM CLR 06/01 A3014 RMK AO2 SLP209 T00610006